createdAt,value
2018-04-15T00:00:26.224Z,2.43
2018-04-15T00:02:53.696Z,2.13
2018-04-15T00:05:21.144Z,2.00
2018-04-15T00:07:48.660Z,2.10
2018-04-15T00:10:16.099Z,2.10
2018-04-15T00:12:43.556Z,2.10
2018-04-15T00:15:11.013Z,2.50
2018-04-15T00:17:38.523Z,2.50
2018-04-15T00:20:05.975Z,2.37
2018-04-15T00:22:33.440Z,2.10
2018-04-15T00:25:00.892Z,2.40
2018-04-15T00:27:28.359Z,2.87
2018-04-15T00:29:55.917Z,2.40
2018-04-15T00:32:23.375Z,2.00
2018-04-15T00:34:50.833Z,2.50
2018-04-15T00:37:18.288Z,2.00
2018-04-15T00:39:45.741Z,2.00
2018-04-15T00:42:13.204Z,2.33
2018-04-15T00:44:41.501Z,2.10
2018-04-15T00:47:09.727Z,2.43
2018-04-15T00:49:37.168Z,2.30
2018-04-15T00:52:04.641Z,2.23
2018-04-15T00:54:32.086Z,2.00
2018-04-15T00:56:59.556Z,2.33
2018-04-15T00:59:26.996Z,2.47
2018-04-15T01:01:54.457Z,2.40
2018-04-15T01:04:21.912Z,2.10
2018-04-15T01:06:49.376Z,1.97
2018-04-15T01:09:16.824Z,2.27
2018-04-15T01:11:44.285Z,2.57
2018-04-15T01:14:11.740Z,2.37
2018-04-15T01:16:39.196Z,2.53
2018-04-15T01:19:06.651Z,2.20
2018-04-15T01:21:34.109Z,2.03
2018-04-15T01:24:01.561Z,2.10
2018-04-15T01:26:29.037Z,2.10
2018-04-15T01:28:56.490Z,3.33
2018-04-15T01:31:23.940Z,2.20
2018-04-15T01:33:51.410Z,1.83
2018-04-15T01:36:20.364Z,1.90
2018-04-15T01:38:47.837Z,2.03
2018-04-15T01:41:15.295Z,1.87
2018-04-15T01:43:42.751Z,2.23
2018-04-15T01:46:10.204Z,2.47
2018-04-15T01:48:37.665Z,2.90
2018-04-15T01:51:05.119Z,2.67
2018-04-15T01:53:32.679Z,1.80
2018-04-15T01:56:00.137Z,2.20
2018-04-15T01:58:27.614Z,2.30
2018-04-15T02:00:55.059Z,2.17
2018-04-15T02:03:22.515Z,2.00
2018-04-15T02:05:50.072Z,2.43
2018-04-15T02:08:17.528Z,1.80
2018-04-15T02:10:44.980Z,2.00
2018-04-15T02:13:12.441Z,2.30
2018-04-15T02:15:39.986Z,2.23
2018-04-15T02:18:07.445Z,1.80
2018-04-15T02:20:34.895Z,2.30
2018-04-15T02:23:02.353Z,2.17
2018-04-15T02:25:29.800Z,2.20
2018-04-15T02:27:57.264Z,1.93
2018-04-15T02:30:24.711Z,1.90
2018-04-15T02:32:52.173Z,2.27
2018-04-15T02:35:19.641Z,2.27
2018-04-15T02:37:47.118Z,1.73
2018-04-15T02:40:14.563Z,1.70
2018-04-15T02:42:42.020Z,1.90
2018-04-15T02:45:09.474Z,2.07
2018-04-15T02:47:36.933Z,2.00
2018-04-15T02:50:04.388Z,1.77
2018-04-15T02:52:31.854Z,1.93
2018-04-15T02:54:59.300Z,2.20
2018-04-15T02:57:26.755Z,1.90
2018-04-15T02:59:54.204Z,2.17
2018-04-15T03:02:21.675Z,1.90
2018-04-15T03:04:49.120Z,1.90
2018-04-15T03:07:16.572Z,2.10
2018-04-15T03:09:44.032Z,2.30
2018-04-15T03:12:11.488Z,2.20
2018-04-15T03:14:38.952Z,2.00
2018-04-15T03:17:06.395Z,2.30
2018-04-15T03:19:33.959Z,1.80
2018-04-15T03:22:01.408Z,1.90
2018-04-15T03:24:28.975Z,2.10
2018-04-15T03:26:56.428Z,1.87
2018-04-15T03:29:23.891Z,1.93
2018-04-15T03:31:51.348Z,2.20
2018-04-15T03:34:18.900Z,2.20
2018-04-15T03:36:46.357Z,1.80
2018-04-15T03:39:13.817Z,2.30
2018-04-15T03:41:41.264Z,1.93
2018-04-15T03:44:08.727Z,2.10
2018-04-15T03:46:36.173Z,1.80
2018-04-15T03:49:03.636Z,2.37
2018-04-15T03:51:31.096Z,1.90
2018-04-15T03:54:00.063Z,1.80
2018-04-15T03:56:27.516Z,2.00
2018-04-15T03:58:54.978Z,2.50
2018-04-15T04:01:22.432Z,2.00
2018-04-15T04:03:49.897Z,3.00
2018-04-15T04:06:17.473Z,1.70
2018-04-15T04:08:44.931Z,2.13
2018-04-15T04:11:12.381Z,1.70
2018-04-15T04:13:39.845Z,1.87
2018-04-15T04:16:07.296Z,2.10
2018-04-15T04:18:46.732Z,2.00
2018-04-15T04:21:26.165Z,2.07
2018-04-15T04:24:05.563Z,1.83
2018-04-15T04:26:33.059Z,2.43
2018-04-15T04:29:02.020Z,1.93
2018-04-15T04:31:29.476Z,1.80
2018-04-15T04:33:56.937Z,1.90
2018-04-15T04:36:24.401Z,1.90
2018-04-15T04:38:51.862Z,2.13
2018-04-15T04:41:19.325Z,1.67
2018-04-15T04:43:46.772Z,2.13
2018-04-15T04:46:14.232Z,1.90
2018-04-15T04:48:41.694Z,2.17
2018-04-15T04:51:09.144Z,1.80
2018-04-15T04:53:36.606Z,1.80
2018-04-15T04:56:04.052Z,1.90
2018-04-15T04:58:31.515Z,2.00
2018-04-15T05:00:59.074Z,2.20
2018-04-15T05:03:26.528Z,2.43
2018-04-15T05:05:53.992Z,2.07
2018-04-15T05:08:21.441Z,2.37
2018-04-15T05:10:48.895Z,1.80
2018-04-15T05:13:17.175Z,1.90
2018-04-15T05:15:44.734Z,2.00
2018-04-15T05:18:12.283Z,1.80
2018-04-15T05:20:39.752Z,1.90
2018-04-15T05:23:07.204Z,2.00
2018-04-15T05:25:34.759Z,2.17
2018-04-15T05:28:02.215Z,2.00
2018-04-15T05:30:29.672Z,1.90
2018-04-15T05:32:57.127Z,2.00
2018-04-15T05:35:24.590Z,2.37
2018-04-15T05:37:52.151Z,2.33
2018-04-15T05:40:19.621Z,2.10
2018-04-15T05:42:47.152Z,1.77
2018-04-15T05:45:14.612Z,1.93
2018-04-15T05:47:42.101Z,2.20
2018-04-15T05:50:09.528Z,1.63
2018-04-15T05:52:37.753Z,2.00
2018-04-15T05:55:05.204Z,2.10
2018-04-15T05:57:32.651Z,1.83
2018-04-15T06:00:00.160Z,1.80
2018-04-15T06:02:27.610Z,2.20
2018-04-15T06:04:55.176Z,1.67
2018-04-15T06:07:22.628Z,1.73
2018-04-15T06:09:50.088Z,2.20
2018-04-15T06:12:17.540Z,1.80
2018-04-15T06:14:44.999Z,1.93
2018-04-15T06:17:12.456Z,1.83
2018-04-15T06:19:39.920Z,1.97
2018-04-15T06:22:07.375Z,2.00
2018-04-15T06:24:34.889Z,1.80
2018-04-15T06:27:02.397Z,1.83
2018-04-15T06:29:29.857Z,1.80
2018-04-15T06:31:57.321Z,2.10
2018-04-15T06:34:25.568Z,1.80
2018-04-15T06:36:53.103Z,1.50
2018-04-15T06:39:20.476Z,2.33
2018-04-15T06:41:47.983Z,1.70
2018-04-15T06:44:16.188Z,1.87
2018-04-15T06:46:43.668Z,1.80
2018-04-15T06:49:11.119Z,2.10
2018-04-15T06:51:38.580Z,1.80
2018-04-15T06:54:06.027Z,2.10
2018-04-15T06:56:33.485Z,1.70
2018-04-15T06:59:00.930Z,1.70
2018-04-15T07:01:28.410Z,1.80
2018-04-15T07:03:55.840Z,1.70
2018-04-15T07:06:23.317Z,1.93
2018-04-15T07:08:50.775Z,2.37
2018-04-15T07:11:18.236Z,1.77
2018-04-15T07:13:45.692Z,1.90
2018-04-15T07:16:13.615Z,1.97
2018-04-15T07:18:41.052Z,2.00
2018-04-15T07:21:08.572Z,1.70
2018-04-15T07:23:36.032Z,2.20
2018-04-15T07:26:03.575Z,2.03
2018-04-15T07:28:31.027Z,1.80
2018-04-15T07:30:58.484Z,1.87
2018-04-15T07:33:25.939Z,2.00
2018-04-15T07:35:53.398Z,1.57
2018-04-15T07:38:20.853Z,2.10
2018-04-15T07:40:48.428Z,1.97
2018-04-15T07:43:15.878Z,2.20
2018-04-15T07:45:43.562Z,7.43
2018-04-15T07:48:12.391Z,17.23
2018-04-15T07:50:41.149Z,26.13
2018-04-15T07:53:08.613Z,28.87
2018-04-15T07:55:36.076Z,31.00
2018-04-15T07:58:03.531Z,26.87
2018-04-15T08:00:31.001Z,25.80
2018-04-15T08:02:58.488Z,23.10
2018-04-15T08:05:25.959Z,22.27
2018-04-15T08:07:53.420Z,21.40
2018-04-15T08:10:20.893Z,20.83
2018-04-15T08:12:49.126Z,18.33
2018-04-15T08:15:16.584Z,16.57
2018-04-15T08:17:44.048Z,14.60
2018-04-15T08:20:11.504Z,13.97
2018-04-15T08:22:39.749Z,13.13
2018-04-15T08:25:07.206Z,14.17
2018-04-15T08:27:34.680Z,12.90
2018-04-15T08:30:02.144Z,11.57
2018-04-15T08:32:29.618Z,10.97
2018-04-15T08:34:57.081Z,10.17
2018-04-15T08:37:25.335Z,9.63
2018-04-15T08:39:52.792Z,9.20
2018-04-15T08:42:20.343Z,9.07
2018-04-15T08:44:47.801Z,8.73
2018-04-15T08:47:15.266Z,8.50
2018-04-15T08:49:42.815Z,8.37
2018-04-15T08:52:10.282Z,7.50
2018-04-15T08:54:37.841Z,7.00
2018-04-15T08:57:06.803Z,6.67
2018-04-15T08:59:34.258Z,6.53
2018-04-15T09:02:01.736Z,8.27
2018-04-15T09:04:29.187Z,7.80
2018-04-15T09:06:56.660Z,8.57
2018-04-15T09:09:24.104Z,8.77
2018-04-15T09:11:51.574Z,10.30
2018-04-15T09:14:19.023Z,10.30
2018-04-15T09:16:46.494Z,8.53
2018-04-15T09:19:14.024Z,7.97
2018-04-15T09:21:41.488Z,7.70
2018-04-15T09:24:08.944Z,7.97
2018-04-15T09:26:36.412Z,8.83
2018-04-15T09:29:03.860Z,8.70
2018-04-15T09:31:31.323Z,8.43
2018-04-15T09:33:58.779Z,10.63
2018-04-15T09:36:26.328Z,9.57
2018-04-15T09:38:53.792Z,9.73
2018-04-15T09:41:21.262Z,10.80
2018-04-15T09:43:49.480Z,12.67
2018-04-15T09:46:16.955Z,10.53
2018-04-15T09:48:44.407Z,9.33
2018-04-15T09:51:11.888Z,8.53
2018-04-15T09:53:39.347Z,8.70
2018-04-15T09:56:06.799Z,8.57
2018-04-15T09:58:34.359Z,9.23
2018-04-15T10:01:03.691Z,8.27
2018-04-15T10:03:31.204Z,8.40
2018-04-15T10:05:58.779Z,9.47
2018-04-15T10:08:26.259Z,8.27
2018-04-15T10:10:54.508Z,8.13
2018-04-15T10:13:21.939Z,7.47
2018-04-15T10:15:49.399Z,7.77
2018-04-15T10:18:16.859Z,8.40
2018-04-15T10:20:44.317Z,8.57
2018-04-15T10:23:11.808Z,7.83
2018-04-15T10:25:40.028Z,6.97
2018-04-15T10:28:07.499Z,6.80
2018-04-15T10:30:34.955Z,7.23
2018-04-15T10:33:02.415Z,7.13
2018-04-15T10:35:29.879Z,7.03
2018-04-15T10:37:57.362Z,7.17
2018-04-15T10:40:25.585Z,8.80
2018-04-15T10:42:53.048Z,9.13
2018-04-15T10:45:20.509Z,9.27
2018-04-15T10:47:47.973Z,7.83
2018-04-15T10:50:15.531Z,7.80
2018-04-15T10:52:42.992Z,7.83
2018-04-15T10:55:10.466Z,7.33
2018-04-15T10:57:37.932Z,7.07
2018-04-15T11:00:06.156Z,6.63
2018-04-15T11:02:33.640Z,6.17
2018-04-15T11:05:01.096Z,7.27
2018-04-15T11:07:28.573Z,6.30
2018-04-15T11:09:56.804Z,6.27
2018-04-15T11:12:24.279Z,7.07
2018-04-15T11:14:51.751Z,7.30
2018-04-15T11:17:19.226Z,6.53
2018-04-15T11:19:47.469Z,5.87
2018-04-15T11:22:15.028Z,6.20
2018-04-15T11:24:42.500Z,5.53
2018-04-15T11:27:10.737Z,5.80
2018-04-15T11:29:38.303Z,5.10
2018-04-15T11:32:05.960Z,5.80
2018-04-15T11:34:33.525Z,5.47
2018-04-15T11:37:00.979Z,5.13
2018-04-15T11:39:28.546Z,5.37
2018-04-15T11:41:56.008Z,5.47
2018-04-15T11:44:23.502Z,5.07
2018-04-15T11:46:50.953Z,5.57
2018-04-15T11:49:18.428Z,5.33
2018-04-15T11:51:46.409Z,5.63
2018-04-15T11:54:13.860Z,5.27
2018-04-15T11:56:41.327Z,5.23
2018-04-15T11:59:08.800Z,5.37
2018-04-15T12:01:36.283Z,5.20
2018-04-15T12:04:04.557Z,5.83
2018-04-15T12:06:32.784Z,6.20
2018-04-15T12:09:00.401Z,6.07
2018-04-15T12:11:28.651Z,5.93
2018-04-15T12:13:56.230Z,5.93
2018-04-15T12:16:24.515Z,6.00
2018-04-15T12:18:52.992Z,5.67
2018-04-15T12:21:21.203Z,5.67
2018-04-15T12:23:48.669Z,5.77
2018-04-15T12:26:16.236Z,5.27
2018-04-15T12:28:43.818Z,5.13
2018-04-15T12:31:11.365Z,5.43
2018-04-15T12:33:38.888Z,5.30
2018-04-15T12:36:07.060Z,5.10
2018-04-15T12:38:34.525Z,5.23
2018-04-15T12:41:02.000Z,5.10
2018-04-15T12:43:29.452Z,5.33
2018-04-15T12:45:56.902Z,5.07
2018-04-15T12:48:24.364Z,5.43
2018-04-15T12:50:51.823Z,5.33
2018-04-15T12:53:19.285Z,4.70
2018-04-15T12:55:46.740Z,4.70
2018-04-15T12:58:14.295Z,4.10
2018-04-15T13:00:42.099Z,5.90
2018-04-15T13:03:10.469Z,4.70
2018-04-15T13:05:38.707Z,4.30
2018-04-15T13:08:06.397Z,5.13
2018-04-15T13:10:34.725Z,5.10
2018-04-15T13:13:03.974Z,6.83
2018-04-15T13:15:32.458Z,5.27
2018-04-15T13:18:00.688Z,5.97
2018-04-15T13:20:28.257Z,5.40
2018-04-15T13:22:55.712Z,4.77
2018-04-15T13:25:23.192Z,5.40
2018-04-15T13:27:51.412Z,4.77
2018-04-15T13:30:18.879Z,5.77
2018-04-15T13:32:46.340Z,6.03
2018-04-15T13:35:13.804Z,5.10
2018-04-15T13:37:41.429Z,5.43
2018-04-15T13:40:08.884Z,5.90
2018-04-15T13:42:36.394Z,5.07
2018-04-15T13:45:03.936Z,5.17
2018-04-15T13:47:31.392Z,4.97
2018-04-15T13:50:03.787Z,4.70
2018-04-15T13:52:32.021Z,4.60
2018-04-15T13:55:00.431Z,4.87
2018-04-15T13:57:29.083Z,5.40
2018-04-15T13:59:57.684Z,4.97
2018-04-15T14:02:25.161Z,4.90
2018-04-15T14:04:53.579Z,4.77
2018-04-15T14:07:21.039Z,4.90
2018-04-15T14:09:48.504Z,4.70
2018-04-15T14:12:15.984Z,4.97
2018-04-15T14:14:43.450Z,5.83
2018-04-15T14:17:10.903Z,5.53
2018-04-15T14:19:39.132Z,6.37
2018-04-15T14:22:06.585Z,5.13
2018-04-15T14:24:34.051Z,5.30
2018-04-15T14:27:02.225Z,5.50
2018-04-15T14:29:29.689Z,5.50
2018-04-15T14:31:57.148Z,5.03
2018-04-15T14:34:24.625Z,4.70
2018-04-15T14:36:52.083Z,5.07
2018-04-15T14:39:19.645Z,5.27
2018-04-15T14:41:47.101Z,4.50
2018-04-15T14:44:14.573Z,4.97
2018-04-15T14:46:42.863Z,4.93
2018-04-15T14:49:11.243Z,4.10
2018-04-15T14:51:38.762Z,4.43
2018-04-15T14:54:06.225Z,4.30
2018-04-15T14:56:33.667Z,4.80
2018-04-15T14:59:01.143Z,4.33
2018-04-15T15:01:28.593Z,5.83
2018-04-15T15:03:56.882Z,5.07
2018-04-15T15:06:25.125Z,4.80
2018-04-15T15:08:52.629Z,4.40
2018-04-15T15:11:20.167Z,5.67
2018-04-15T15:13:48.393Z,5.17
2018-04-15T15:16:15.854Z,4.30
2018-04-15T15:18:43.315Z,4.10
2018-04-15T15:21:10.775Z,4.40
2018-04-15T15:23:38.228Z,4.70
2018-04-15T15:26:05.696Z,5.10
2018-04-15T15:28:33.152Z,4.47
2018-04-15T15:31:00.612Z,4.57
2018-04-15T15:33:28.072Z,4.20
2018-04-15T15:35:55.524Z,4.20
2018-04-15T15:38:22.981Z,4.50
2018-04-15T15:40:50.451Z,4.03
2018-04-15T15:43:17.913Z,4.30
2018-04-15T15:45:46.145Z,4.40
2018-04-15T15:48:14.116Z,4.57
2018-04-15T15:50:41.576Z,4.40
2018-04-15T15:53:09.543Z,4.00
2018-04-15T15:55:37.009Z,4.33
2018-04-15T15:58:04.465Z,4.00
2018-04-15T16:00:31.925Z,4.60
2018-04-15T16:02:59.376Z,4.30
2018-04-15T16:05:26.939Z,4.07
2018-04-15T16:07:54.400Z,3.93
2018-04-15T16:10:21.859Z,4.03
2018-04-15T16:12:49.405Z,4.27
2018-04-15T16:15:16.865Z,4.17
2018-04-15T16:17:44.316Z,3.97
2018-04-15T16:20:11.776Z,4.50
2018-04-15T16:22:39.237Z,4.57
2018-04-15T16:25:06.688Z,3.97
2018-04-15T16:27:34.149Z,3.50
2018-04-15T16:30:01.605Z,6.60
2018-04-15T16:32:29.060Z,4.90
2018-04-15T16:34:56.615Z,5.27
2018-04-15T16:37:24.072Z,4.73
2018-04-15T16:39:52.303Z,4.50
2018-04-15T16:42:19.763Z,4.27
2018-04-15T16:44:47.249Z,4.37
2018-04-15T16:47:14.708Z,4.30
2018-04-15T16:49:42.625Z,3.83
2018-04-15T16:52:10.083Z,3.70
2018-04-15T16:54:37.539Z,3.60
2018-04-15T16:57:05.014Z,3.97
2018-04-15T16:59:32.465Z,4.03
2018-04-15T17:01:59.919Z,4.20
2018-04-15T17:04:27.372Z,4.03
2018-04-15T17:06:54.843Z,4.03
2018-04-15T17:09:22.288Z,3.90
2018-04-15T17:11:49.755Z,3.90
2018-04-15T17:14:17.204Z,3.80
2018-04-15T17:16:44.664Z,4.33
2018-04-15T17:19:12.119Z,4.13
2018-04-15T17:21:39.585Z,3.90
2018-04-15T17:24:07.032Z,3.80
2018-04-15T17:26:34.491Z,3.97
2018-04-15T17:29:01.950Z,4.27
2018-04-15T17:31:29.424Z,4.20
2018-04-15T17:33:56.951Z,6.23
2018-04-15T17:36:24.343Z,6.57
2018-04-15T17:38:51.800Z,4.97
2018-04-15T17:41:19.347Z,4.50
2018-04-15T17:43:46.866Z,4.47
2018-04-15T17:46:14.365Z,4.00
2018-04-15T17:48:41.828Z,4.60
2018-04-15T17:51:09.293Z,4.37
2018-04-15T17:53:36.743Z,4.33
2018-04-15T17:56:04.200Z,3.93
2018-04-15T17:58:32.424Z,4.33
2018-04-15T18:00:59.884Z,4.00
2018-04-15T18:03:27.341Z,4.10
2018-04-15T18:05:54.796Z,4.53
2018-04-15T18:08:22.248Z,4.40
2018-04-15T18:10:49.707Z,4.40
2018-04-15T18:13:17.174Z,4.30
2018-04-15T18:15:44.624Z,5.60
2018-04-15T18:18:12.083Z,5.13
2018-04-15T18:20:39.548Z,4.80
2018-04-15T18:23:07.021Z,4.50
2018-04-15T18:25:34.480Z,4.73
2018-04-15T18:28:02.069Z,5.20
2018-04-15T18:30:29.501Z,4.73
2018-04-15T18:32:56.967Z,5.40
2018-04-15T18:35:25.233Z,5.40
2018-04-15T18:37:52.701Z,5.27
2018-04-15T18:40:20.916Z,5.20
2018-04-15T18:42:48.408Z,5.87
2018-04-15T18:45:15.858Z,6.27
2018-04-15T18:47:43.328Z,5.53
2018-04-15T18:50:11.707Z,5.43
2018-04-15T18:52:39.120Z,5.60
2018-04-15T18:55:06.581Z,4.73
2018-04-15T18:57:34.056Z,5.00
2018-04-15T19:00:01.511Z,5.43
2018-04-15T19:02:28.977Z,5.00
2018-04-15T19:04:56.543Z,5.67
2018-04-15T19:07:24.008Z,5.47
2018-04-15T19:09:51.509Z,4.67
2018-04-15T19:12:18.963Z,5.23
2018-04-15T19:14:46.431Z,5.80
2018-04-15T19:17:13.892Z,5.30
2018-04-15T19:19:41.343Z,5.17
2018-04-15T19:22:08.805Z,4.77
2018-04-15T19:24:36.268Z,4.43
2018-04-15T19:27:03.731Z,4.87
2018-04-15T19:29:31.217Z,4.70
2018-04-15T19:31:59.473Z,5.13
2018-04-15T19:34:26.913Z,5.70
2018-04-15T19:36:54.449Z,4.60
2018-04-15T19:39:21.897Z,4.63
2018-04-15T19:41:49.396Z,5.43
2018-04-15T19:44:16.808Z,5.20
2018-04-15T19:46:44.287Z,5.00
2018-04-15T19:49:11.760Z,5.20
2018-04-15T19:51:39.224Z,4.97
2018-04-15T19:54:06.680Z,4.53
2018-04-15T19:56:34.172Z,4.23
2018-04-15T19:59:02.405Z,4.70
2018-04-15T20:01:29.972Z,3.93
2018-04-15T20:03:57.428Z,3.60
2018-04-15T20:06:24.980Z,4.67
2018-04-15T20:08:52.449Z,4.67
2018-04-15T20:11:19.913Z,4.80
2018-04-15T20:13:47.382Z,5.07
2018-04-15T20:16:15.600Z,4.00
2018-04-15T20:18:43.071Z,4.20
2018-04-15T20:21:10.545Z,4.07
2018-04-15T20:23:38.010Z,4.33
2018-04-15T20:26:05.476Z,5.00
2018-04-15T20:28:33.720Z,4.57
2018-04-15T20:31:01.177Z,5.00
2018-04-15T20:33:28.645Z,4.63
2018-04-15T20:35:56.103Z,4.17
2018-04-15T20:38:23.572Z,4.00
2018-04-15T20:40:51.824Z,4.60
2018-04-15T20:43:19.297Z,4.20
2018-04-15T20:45:46.748Z,4.50
2018-04-15T20:48:14.213Z,3.87
2018-04-15T20:50:42.461Z,4.33
2018-04-15T20:53:09.936Z,4.90
2018-04-15T20:55:37.392Z,4.77
2018-04-15T20:58:04.876Z,4.67
2018-04-15T21:00:33.148Z,4.80
2018-04-15T21:03:00.635Z,4.67
2018-04-15T21:05:28.124Z,4.73
2018-04-15T21:07:55.589Z,4.70
2018-04-15T21:10:23.044Z,4.17
2018-04-15T21:12:50.508Z,4.40
2018-04-15T21:15:18.771Z,4.03
2018-04-15T21:17:46.238Z,4.83
2018-04-15T21:20:13.689Z,4.13
2018-04-15T21:22:41.157Z,4.73
2018-04-15T21:25:09.379Z,4.37
2018-04-15T21:27:36.841Z,4.50
2018-04-15T21:30:04.300Z,4.10
2018-04-15T21:32:31.761Z,4.63
2018-04-15T21:34:59.216Z,4.67
2018-04-15T21:37:26.689Z,4.47
2018-04-15T21:39:54.148Z,3.90
2018-04-15T21:42:21.603Z,4.47
2018-04-15T21:44:49.160Z,4.43
2018-04-15T21:47:16.611Z,4.27
2018-04-15T21:49:44.165Z,4.37
2018-04-15T21:52:11.629Z,3.67
2018-04-15T21:54:39.096Z,3.77
2018-04-15T21:57:06.543Z,3.77
2018-04-15T21:59:34.003Z,4.10
2018-04-15T22:02:01.464Z,3.80
2018-04-15T22:04:28.924Z,4.17
2018-04-15T22:06:57.141Z,3.90
2018-04-15T22:09:24.605Z,4.43
2018-04-15T22:12:04.036Z,3.50
2018-04-15T22:14:31.488Z,3.93
2018-04-15T22:16:58.942Z,3.50
2018-04-15T22:19:26.396Z,3.80
2018-04-15T22:21:53.852Z,3.70
2018-04-15T22:24:21.313Z,3.60
2018-04-15T22:26:48.767Z,3.50
2018-04-15T22:29:16.233Z,3.90
2018-04-15T22:31:43.684Z,3.37
2018-04-15T22:34:11.144Z,3.87
2018-04-15T22:36:38.595Z,3.83
2018-04-15T22:39:06.057Z,3.03
2018-04-15T22:41:33.512Z,3.70
2018-04-15T22:44:00.985Z,3.97
2018-04-15T22:46:28.432Z,3.30
2018-04-15T22:48:56.795Z,3.70
2018-04-15T22:51:24.281Z,3.47
2018-04-15T22:53:51.736Z,3.17
2018-04-15T22:56:19.187Z,3.40
2018-04-15T22:58:47.441Z,4.57
2018-04-15T23:01:14.888Z,4.47
2018-04-15T23:03:42.344Z,3.57
2018-04-15T23:06:09.801Z,3.30
2018-04-15T23:08:37.263Z,3.67
2018-04-15T23:11:04.753Z,3.70
2018-04-15T23:13:32.223Z,3.73
2018-04-15T23:15:59.667Z,3.60
2018-04-15T23:18:27.128Z,3.37
2018-04-15T23:20:54.588Z,3.10
2018-04-15T23:23:22.241Z,3.47
2018-04-15T23:25:49.695Z,3.37
2018-04-15T23:28:17.147Z,3.60
2018-04-15T23:30:46.120Z,3.30
2018-04-15T23:33:13.573Z,3.13
2018-04-15T23:35:41.032Z,3.53
2018-04-15T23:38:08.484Z,3.23
2018-04-15T23:40:35.943Z,3.67
2018-04-15T23:43:03.405Z,3.60
2018-04-15T23:45:30.859Z,3.33
2018-04-15T23:47:58.315Z,3.73
2018-04-15T23:50:25.865Z,3.33
2018-04-15T23:52:53.339Z,3.20
2018-04-15T23:55:20.907Z,3.40
2018-04-15T23:57:48.365Z,3.37
